Aérodrome :
LOGIN :

S'inscrire | Disclaimer

   EN    FR    IT 

 










Légende :    VFR   VFR Marginal   IFR   IFR Intensif   IFR Très Intensif
Visi : 
Plafond : 
>= 8 km
>= 3000ft
5 à 8 km
1000 à 3000 ft
1500m à 5 km
500 à 1000 ft
800 à 1500m
200 à 500 ft
< 800m
< 200 ft
Symboles :   Orages  Brouillard  Fortes neiges  Fortes précipitations  Vent > 20 kt
SIGMETs :   Divers  Orages  Givrage  Turbulence  Onde Orograph.  Cendres Volcan.






- Altitude de l'aérodrome : 1906 ft
- Code IATA : INN


LOWI - Innsbruck

DERNIER METAR :
  • 300420Z AUTO VRB03KT 9999 SCT014 BKN015 M01/M04 Q1025

METARs EXPIRÉS :
  • 300350Z AUTO 14003KT 120V180 9999 FEW014 BKN015 M01/M04 Q1025
  • 300320Z AUTO 28003KT 250V320 9999 FEW013 BKN015 M01/M04 Q1024
  • 300250Z AUTO 28003KT 230V300 9999 FEW014 BKN016 M01/M04 Q1024
  • 300220Z AUTO 26003KT 230V300 9999 FEW014 BKN016 M01/M04 Q1024

TAF TAF LOWI
Valide du 30 à 00h jusqu'au 01 à 00h UTC


292315Z 3000/3024 VRB02KT 9999 BKN015 TX03/3013Z TNM07/3006Z
TEMPO 3000/3009 BKN010
BECMG 3009/3011 FEW015



MET'MAP, la Météo Aéronautique d'un coup d'oeil ! - Copyright ORBIFLY Décembre 2007 - Disclaimer

ORBIFLY MET'MAP TEAM :

Programmation & Développement : Alexandra Zaïnal
Sur une idée originale de : Baudouin d'Aumeries
Assistance à la programmation : Marc-Olivier Méhu
Soutien technique & logistique : Manuel Goepfert

Contact : metmap@orbifly.com




SOURCES & CREDITS :

   NOAA